createdAt,value
2019-03-09T00:01:37.637Z,8.82
2019-03-09T00:06:31.498Z,8.86
2019-03-09T00:11:25.500Z,8.92
2019-03-09T00:16:19.449Z,8.89
2019-03-09T00:21:13.838Z,8.93
2019-03-09T00:26:15.607Z,8.97
2019-03-09T00:31:11.498Z,9.05
2019-03-09T00:36:05.315Z,9.07
2019-03-09T00:40:59.207Z,9.08
2019-03-09T00:45:53.067Z,8.88
2019-03-09T00:50:46.930Z,8.68
2019-03-09T00:55:40.909Z,8.54
2019-03-09T01:00:34.941Z,8.29
2019-03-09T01:05:28.905Z,7.91
2019-03-09T01:10:22.871Z,7.84
2019-03-09T01:15:16.742Z,7.92
2019-03-09T01:20:13.211Z,8.05
2019-03-09T01:25:08.337Z,8.01
2019-03-09T01:30:04.095Z,7.88
2019-03-09T01:34:57.956Z,7.57
2019-03-09T01:39:51.910Z,7.46
2019-03-09T01:44:45.775Z,7.54
2019-03-09T01:49:39.742Z,7.61
2019-03-09T01:54:33.672Z,7.76
2019-03-09T01:59:27.516Z,7.79
2019-03-09T02:04:21.532Z,7.77
2019-03-09T02:09:15.395Z,7.63
2019-03-09T02:14:09.232Z,7.57
2019-03-09T02:19:03.113Z,7.51
2019-03-09T02:23:56.937Z,7.53
2019-03-09T02:28:50.775Z,7.58
2019-03-09T02:33:44.627Z,7.54
2019-03-09T02:38:46.509Z,7.57
2019-03-09T02:43:40.352Z,7.56
2019-03-09T02:48:34.241Z,7.59
2019-03-09T02:53:28.052Z,7.70
2019-03-09T02:58:21.929Z,7.73
2019-03-09T03:03:15.921Z,7.78
2019-03-09T03:08:09.786Z,7.81
2019-03-09T03:13:03.651Z,7.90
2019-03-09T03:17:57.497Z,7.93
2019-03-09T03:22:51.351Z,8.00
2019-03-09T03:27:45.212Z,7.99
2019-03-09T03:32:39.159Z,8.03
2019-03-09T03:37:33.026Z,8.07
2019-03-09T03:42:26.890Z,8.10
2019-03-09T03:47:20.833Z,8.12
2019-03-09T03:52:14.709Z,8.12
2019-03-09T03:57:08.562Z,8.14
2019-03-09T04:02:02.520Z,8.13
2019-03-09T04:06:56.490Z,8.16
2019-03-09T04:11:50.462Z,8.24
2019-03-09T04:16:44.317Z,8.29
2019-03-09T04:21:38.198Z,8.35
2019-03-09T04:26:32.143Z,8.37
2019-03-09T04:31:26.120Z,8.39
2019-03-09T04:36:19.939Z,8.41
2019-03-09T04:41:13.799Z,8.41
2019-03-09T04:46:07.693Z,8.42
2019-03-09T04:51:01.566Z,8.41
2019-03-09T04:55:55.422Z,8.44
2019-03-09T05:00:49.280Z,8.45
2019-03-09T05:05:43.244Z,8.49
2019-03-09T05:10:43.590Z,8.55
2019-03-09T05:15:37.458Z,8.56
2019-03-09T05:20:31.315Z,8.62
2019-03-09T05:25:25.164Z,8.65
2019-03-09T05:30:36.730Z,8.73
2019-03-09T05:35:30.626Z,8.85
2019-03-09T05:40:24.493Z,8.88
2019-03-09T05:45:18.340Z,8.91
2019-03-09T05:50:12.193Z,9.00
2019-03-09T05:55:09.580Z,9.00
2019-03-09T06:00:07.272Z,9.03
2019-03-09T06:05:01.141Z,8.98
2019-03-09T06:09:55.298Z,9.00
2019-03-09T06:14:49.139Z,8.92
2019-03-09T06:19:42.997Z,8.84
2019-03-09T06:24:36.852Z,8.81
2019-03-09T06:29:30.700Z,8.93
2019-03-09T06:34:24.568Z,9.08
2019-03-09T06:39:18.428Z,9.18
2019-03-09T06:44:12.297Z,9.40
2019-03-09T06:49:06.147Z,9.56
2019-03-09T06:54:00.016Z,9.68
2019-03-09T06:58:53.890Z,9.72
2019-03-09T07:03:47.871Z,9.93
2019-03-09T07:08:41.832Z,9.90
2019-03-09T07:13:35.688Z,9.91
2019-03-09T07:18:30.656Z,9.92
2019-03-09T07:23:24.702Z,9.85
2019-03-09T07:28:18.557Z,9.95
2019-03-09T07:33:12.422Z,10.04
2019-03-09T07:38:06.397Z,10.03
2019-03-09T07:43:00.374Z,10.09
2019-03-09T07:47:54.336Z,10.31
2019-03-09T07:52:48.199Z,10.49
2019-03-09T07:57:42.170Z,10.55
2019-03-09T08:02:36.049Z,10.50
2019-03-09T08:07:29.926Z,10.54
2019-03-09T08:12:24.267Z,10.73
2019-03-09T08:17:18.378Z,10.66
2019-03-09T08:22:12.235Z,10.62
2019-03-09T08:27:06.116Z,10.75
2019-03-09T08:31:59.971Z,10.86
2019-03-09T08:36:53.942Z,10.87
2019-03-09T08:41:47.911Z,11.01
2019-03-09T08:46:41.802Z,11.12
2019-03-09T08:51:35.783Z,11.05
2019-03-09T08:56:29.868Z,11.10
2019-03-09T09:01:23.806Z,11.13
2019-03-09T09:06:17.669Z,11.33
2019-03-09T09:11:11.602Z,11.36
2019-03-09T09:16:05.455Z,11.45
2019-03-09T09:20:59.324Z,11.57
2019-03-09T09:25:53.305Z,11.67
2019-03-09T09:30:47.200Z,11.51
2019-03-09T09:35:41.075Z,11.40
2019-03-09T09:40:35.032Z,11.87
2019-03-09T09:45:29.090Z,11.96
2019-03-09T09:50:23.151Z,12.06
2019-03-09T09:55:18.283Z,12.07
2019-03-09T10:00:17.937Z,12.09
2019-03-09T10:05:11.946Z,12.26
2019-03-09T10:10:09.435Z,12.35
2019-03-09T10:15:07.138Z,12.51
2019-03-09T10:20:01.009Z,12.82
2019-03-09T10:24:55.003Z,12.88
2019-03-09T10:29:48.965Z,13.11
2019-03-09T10:34:42.845Z,13.36
2019-03-09T10:39:36.724Z,13.75
2019-03-09T10:44:30.759Z,14.11
2019-03-09T10:49:24.612Z,13.58
2019-03-09T10:54:18.502Z,13.55
2019-03-09T10:59:12.369Z,13.42
2019-03-09T11:04:06.486Z,13.21
2019-03-09T11:09:00.451Z,13.09
2019-03-09T11:13:54.440Z,13.16
2019-03-09T11:18:48.288Z,13.49
2019-03-09T11:23:42.530Z,13.35
2019-03-09T11:28:36.805Z,13.04
2019-03-09T11:33:30.739Z,13.05
2019-03-09T11:38:24.625Z,13.49
2019-03-09T11:43:18.568Z,13.48
2019-03-09T11:48:12.540Z,14.17
2019-03-09T11:53:06.435Z,15.14
2019-03-09T11:58:00.432Z,16.71
2019-03-09T12:02:54.453Z,17.05
2019-03-09T12:07:48.424Z,18.70
2019-03-09T12:12:42.417Z,19.53
2019-03-09T12:17:36.285Z,24.65
2019-03-09T12:22:30.445Z,22.46
2019-03-09T12:27:24.342Z,20.00
2019-03-09T12:32:18.235Z,21.21
2019-03-09T12:37:12.251Z,21.12
2019-03-09T12:42:06.237Z,17.67
2019-03-09T12:47:03.150Z,16.64
2019-03-09T12:51:59.057Z,18.50
2019-03-09T12:56:52.941Z,17.21
2019-03-09T13:01:46.991Z,15.99
2019-03-09T13:06:40.980Z,16.17
2019-03-09T13:11:34.924Z,14.76
2019-03-09T13:16:29.241Z,14.43
2019-03-09T13:21:23.073Z,15.03
2019-03-09T13:26:17.083Z,14.98
2019-03-09T13:31:10.963Z,14.20
2019-03-09T13:36:05.950Z,14.31
2019-03-09T13:41:00.048Z,14.92
2019-03-09T13:45:53.922Z,16.04
2019-03-09T13:50:47.897Z,14.50
2019-03-09T13:55:41.827Z,13.63
2019-03-09T14:00:40.540Z,12.75
2019-03-09T14:05:31.524Z,12.27
2019-03-09T14:10:25.449Z,11.80
2019-03-09T14:15:19.406Z,11.73
2019-03-09T14:20:15.229Z,12.98
2019-03-09T14:25:11.014Z,14.34
2019-03-09T14:30:15.745Z,17.83
2019-03-09T14:35:09.752Z,13.43
2019-03-09T14:40:06.330Z,16.48
2019-03-09T14:45:00.264Z,14.11
2019-03-09T14:49:54.268Z,21.07
2019-03-09T14:54:48.280Z,18.65
2019-03-09T14:59:42.328Z,16.77
2019-03-09T15:04:36.352Z,18.00
2019-03-09T15:09:30.276Z,23.48
2019-03-09T15:14:24.250Z,23.59
2019-03-09T15:19:18.194Z,23.45
2019-03-09T15:24:12.102Z,23.45
2019-03-09T15:29:05.980Z,23.52
2019-03-09T15:33:59.942Z,25.21
2019-03-09T15:38:53.856Z,22.22
2019-03-09T15:43:47.846Z,16.96
2019-03-09T15:48:41.862Z,13.61
2019-03-09T15:53:35.821Z,11.74
2019-03-09T15:58:29.764Z,10.56
2019-03-09T16:03:23.768Z,10.36
2019-03-09T16:08:17.651Z,10.33
2019-03-09T16:13:11.666Z,10.62
2019-03-09T16:18:05.518Z,10.89
2019-03-09T16:22:59.542Z,11.22
2019-03-09T16:33:49.858Z,11.89
2019-03-09T16:38:43.756Z,11.83
2019-03-09T16:43:37.626Z,11.55
2019-03-09T16:48:31.489Z,11.50
2019-03-09T16:53:25.477Z,11.07
2019-03-09T16:58:19.403Z,10.20
2019-03-09T17:03:13.398Z,9.61
2019-03-09T17:08:07.442Z,9.41
2019-03-09T17:13:01.448Z,9.27
2019-03-09T17:17:55.666Z,9.10
2019-03-09T17:22:49.751Z,9.03
2019-03-09T17:27:43.639Z,9.12
2019-03-09T17:32:37.614Z,9.08
2019-03-09T17:37:31.505Z,9.02
2019-03-09T17:42:25.377Z,9.05
2019-03-09T17:47:19.351Z,9.00
2019-03-09T17:52:13.371Z,8.97
2019-03-09T17:57:07.360Z,8.92
2019-03-09T18:02:01.365Z,9.03
2019-03-09T18:06:55.295Z,9.16
2019-03-09T18:11:49.168Z,9.29
2019-03-09T18:16:52.300Z,9.28
2019-03-09T18:21:38.851Z,9.17
2019-03-09T18:26:32.837Z,9.13
2019-03-09T18:31:26.842Z,9.10
2019-03-09T18:36:20.716Z,9.00
2019-03-09T18:41:14.718Z,8.90
2019-03-09T18:46:08.604Z,8.79
2019-03-09T18:51:02.613Z,8.76
2019-03-09T18:55:59.428Z,8.68
2019-03-09T19:00:52.228Z,8.58
2019-03-09T19:05:46.137Z,8.50
2019-03-09T19:10:39.989Z,8.38
2019-03-09T19:15:33.896Z,8.28
2019-03-09T19:20:27.860Z,8.21
2019-03-09T19:25:21.898Z,8.13
2019-03-09T19:30:21.124Z,8.06
2019-03-09T19:35:15.205Z,8.02
2019-03-09T19:40:17.491Z,7.91
2019-03-09T19:45:14.100Z,7.93
2019-03-09T19:50:18.512Z,7.90
2019-03-09T19:55:12.828Z,7.88
2019-03-09T20:00:10.290Z,7.79
2019-03-09T20:05:07.461Z,7.74
2019-03-09T20:10:01.807Z,7.68
2019-03-09T20:14:55.668Z,7.74
2019-03-09T20:19:49.646Z,7.78
2019-03-09T20:24:43.543Z,7.84
2019-03-09T20:29:37.443Z,7.81
2019-03-09T20:34:31.294Z,7.82
2019-03-09T20:39:25.310Z,7.90
2019-03-09T20:44:19.287Z,7.89
2019-03-09T20:49:13.277Z,7.97
2019-03-09T20:54:07.134Z,8.20
2019-03-09T20:59:00.986Z,8.16
2019-03-09T21:03:54.986Z,8.32
2019-03-09T21:08:48.951Z,8.44
2019-03-09T21:13:42.908Z,8.60
2019-03-09T21:18:37.022Z,8.65
2019-03-09T21:23:30.988Z,8.69
2019-03-09T21:28:24.840Z,8.75
2019-03-09T21:33:18.738Z,8.86
2019-03-09T21:38:12.635Z,8.89
2019-03-09T21:43:06.529Z,8.90
2019-03-09T21:48:00.369Z,8.87
2019-03-09T21:52:54.286Z,8.87
2019-03-09T21:57:48.205Z,8.85
2019-03-09T22:02:42.226Z,8.90
2019-03-09T22:07:36.160Z,8.85
2019-03-09T22:12:30.140Z,8.74
2019-03-09T22:17:24.028Z,8.74
2019-03-09T22:22:17.904Z,8.69
2019-03-09T22:27:11.776Z,8.74
2019-03-09T22:32:05.765Z,8.82
2019-03-09T22:36:59.653Z,8.80
2019-03-09T22:41:53.505Z,8.86
2019-03-09T22:46:47.459Z,8.89
2019-03-09T22:51:41.338Z,8.95
2019-03-09T22:56:35.374Z,8.97
2019-03-09T23:01:30.242Z,8.99
2019-03-09T23:06:24.250Z,9.03
2019-03-09T23:11:18.110Z,9.02
2019-03-09T23:16:12.028Z,9.03
2019-03-09T23:21:05.995Z,9.02
2019-03-09T23:25:59.854Z,8.97
2019-03-09T23:30:54.576Z,8.93
2019-03-09T23:35:48.890Z,8.90
2019-03-09T23:40:42.872Z,8.86
2019-03-09T23:45:37.020Z,8.90
2019-03-09T23:50:31.780Z,8.93
2019-03-09T23:55:25.974Z,8.92
